Time;durP1;ratioP1;P1;durP2;ratioP2;P2;SDS_P1;SDS_P2;PMS_P1;PMS_P2;Temp;Humidity;BMP_temperature;BMP_pressure;BME280_temperature;BME280_humidity;BME280_pressure;Samples;Min_cycle;Max_cycle;Signal;HPM_P1;HPM_P2
2022/11/20 00:01:18;;;;;;;258.20;128.30;;;;;;;-3.72;72.68;96831.85;1745859;81;28249;-73
2022/11/20 00:03:47;;;;;;;195.75;110.15;;;;;;;-3.75;72.62;96821.12;1757083;81;25693;-73
2022/11/20 00:06:18;;;;;;;171.55;103.80;;;;;;;-3.79;72.60;96820.20;1758228;80;25683;-76
2022/11/20 00:08:45;;;;;;;171.47;103.35;;;;;;;-3.78;72.73;96825.82;1760421;81;26181;-75
2022/11/20 00:11:19;;;;;;;210.78;116.33;;;;;;;-3.74;72.83;96828.03;1760707;80;25736;-73
2022/11/20 00:13:48;;;;;;;173.90;105.65;;;;;;;-3.71;72.83;96821.17;1760779;80;27374;-73
2022/11/20 00:16:19;;;;;;;160.88;99.30;;;;;;;-3.71;72.79;96825.61;1760767;81;25858;-74
2022/11/20 00:18:46;;;;;;;159.70;98.70;;;;;;;-3.68;72.87;96826.66;1760901;80;25668;-73
2022/11/20 00:21:17;;;;;;;148.90;94.83;;;;;;;-3.63;72.93;96819.18;1760723;81;25978;-73
2022/11/20 00:23:45;;;;;;;142.37;93.62;;;;;;;-3.59;72.89;96814.44;1760891;81;25459;-74
2022/11/20 00:26:15;;;;;;;149.85;94.25;;;;;;;-3.56;72.84;96815.00;1760712;80;27600;-72
2022/11/20 00:28:44;;;;;;;155.43;96.10;;;;;;;-3.53;72.86;96810.78;1760721;80;25700;-75
2022/11/20 00:31:14;;;;;;;153.57;97.47;;;;;;;-3.48;72.92;96809.86;1760961;81;25771;-73
2022/11/20 00:33:43;;;;;;;146.18;92.17;;;;;;;-3.47;72.99;96816.80;1760848;81;25989;-72
2022/11/20 00:36:14;;;;;;;139.18;89.22;;;;;;;-3.44;72.98;96821.81;1760814;80;25462;-73
2022/11/20 00:38:42;;;;;;;135.57;90.07;;;;;;;-3.40;73.01;96808.70;1760828;81;27355;-75
2022/11/20 00:41:12;;;;;;;141.18;89.80;;;;;;;-3.37;72.99;96806.23;1760827;81;25801;-73
2022/11/20 00:43:39;;;;;;;123.97;79.27;;;;;;;-3.37;73.00;96808.39;1760991;80;25736;-73
2022/11/20 00:46:10;;;;;;;117.10;75.32;;;;;;;-3.37;72.92;96802.28;1760817;81;26020;-76
2022/11/20 00:48:37;;;;;;;116.60;73.62;;;;;;;-3.36;72.93;96805.27;1761131;81;25767;-73
2022/11/20 00:51:03;;;;;;;117.72;73.50;;;;;;;-3.35;72.95;96817.01;1760880;81;27400;-75
2022/11/20 00:53:31;;;;;;;109.30;69.75;;;;;;;-3.34;72.99;96816.04;1760942;81;25601;-73
2022/11/20 00:56:05;;;;;;;119.20;74.10;;;;;;;-3.31;72.92;96821.05;1760905;81;25673;-73
2022/11/20 00:58:34;;;;;;;111.80;71.95;;;;;;;-3.28;72.91;96806.26;1678787;85;26055;-73
2022/11/20 01:01:12;;;;;;;113.40;72.32;;;;;;;-3.26;72.92;96799.01;1678872;85;25746;-74
2022/11/20 01:03:44;;;;;;;117.33;74.60;;;;;;;-3.24;72.97;96808.59;1624614;88;27619;-74
2022/11/20 01:06:15;;;;;;;116.08;77.42;;;;;;;-3.24;73.07;96811.23;1539884;93;25838;-75
2022/11/20 01:08:42;;;;;;;119.75;77.30;;;;;;;-3.23;73.09;96814.22;1506283;94;25852;-74
2022/11/20 01:11:17;;;;;;;122.60;78.22;;;;;;;-3.23;73.09;96812.41;1506465;95;26014;-73
2022/11/20 01:13:45;;;;;;;116.62;75.42;;;;;;;-3.20;73.11;96810.83;1488323;96;25913;-73
2022/11/20 01:16:25;;;;;;;117.70;77.03;;;;;;;-3.22;73.11;96808.80;1488337;95;27382;-72
2022/11/20 01:18:55;;;;;;;130.22;82.40;;;;;;;-3.20;73.12;96806.03;1460429;98;25757;-73
2022/11/20 01:21:29;;;;;;;129.18;81.65;;;;;;;-3.16;73.28;96806.10;1460540;98;25940;-73
2022/11/20 01:23:57;;;;;;;127.00;80.85;;;;;;;-3.12;73.35;96808.78;1460601;98;26007;-74
2022/11/20 01:26:28;;;;;;;126.30;80.17;;;;;;;-3.08;73.39;96809.70;1460342;98;25940;-73
2022/11/20 01:28:56;;;;;;;128.25;80.40;;;;;;;-3.06;73.35;96801.64;1460640;98;27477;-73
2022/11/20 01:31:32;;;;;;;115.50;75.75;;;;;;;-3.04;73.28;96799.69;1460416;98;25847;-75
2022/11/20 01:34:03;;;;;;;122.20;77.15;;;;;;;-3.06;73.24;96781.34;1449568;98;25813;-76
2022/11/20 01:36:32;;;;;;;115.10;73.90;;;;;;;-3.05;73.24;96779.55;1449837;98;26002;-73
2022/11/20 01:39:03;;;;;;;110.88;69.65;;;;;;;-3.12;73.20;96766.06;1449682;98;25534;-76
2022/11/20 01:44:22;;;;;;;108.72;72.97;;;;;;;-3.02;73.14;96780.59;1448399;99;25751;-72
2022/11/20 01:46:59;;;;;;;112.25;70.72;;;;;;;-3.02;73.17;96785.34;1448447;99;25822;-73
2022/11/20 01:49:42;;;;;;;116.85;73.72;;;;;;;-2.99;73.24;96787.71;1448518;99;26913;-73
2022/11/20 01:52:16;;;;;;;105.65;71.42;;;;;;;-2.95;73.27;96786.46;1448621;99;25885;-73
2022/11/20 01:54:48;;;;;;;108.80;69.20;;;;;;;-2.92;73.24;96783.54;1447989;98;27434;-71
2022/11/20 01:57:17;;;;;;;114.80;72.25;;;;;;;-2.86;73.22;96789.21;1467146;97;25826;-74
2022/11/20 01:59:55;;;;;;;122.98;72.35;;;;;;;-2.82;73.32;96786.64;1474412;94;25746;-73
2022/11/20 02:02:21;;;;;;;121.67;77.20;;;;;;;-2.79;73.33;96783.23;1440610;97;25941;-74
2022/11/20 02:04:52;;;;;;;130.55;80.05;;;;;;;-2.75;73.35;96783.75;1422401;100;25872;-75
2022/11/20 02:07:20;;;;;;;130.75;82.45;;;;;;;-2.74;73.30;96782.29;1432577;99;27089;-75
2022/11/20 02:09:47;;;;;;;130.10;80.25;;;;;;;-2.73;73.20;96789.24;1436237;98;25621;-73
2022/11/20 02:13:42;;;;;;;128.47;79.25;;;;;;;-2.78;73.26;96774.33;1495907;95;25882;-74
2022/11/20 02:14:42;;;;;;;123.92;78.05;;;;;;;-2.78;73.39;96771.69;1510222;91;26568;-73
2022/11/20 02:17:08;;;;;;;125.47;77.45;;;;;;;-2.78;73.35;96774.33;1536040;93;25761;-73
2022/11/20 02:19:35;;;;;;;190.03;102.60;;;;;;;-2.78;73.39;96779.61;1564304;91;26982;-74
2022/11/20 02:22:19;;;;;;;134.90;77.85;;;;;;;-2.76;73.41;96783.41;1535601;93;25587;-73
2022/11/20 02:24:48;;;;;;;126.35;74.82;;;;;;;-2.77;73.45;96786.53;1559184;91;25369;-73
2022/11/20 02:27:17;;;;;;;125.55;74.75;;;;;;;-2.82;73.46;96776.91;1561700;91;25689;-73
2022/11/20 02:29:51;;;;;;;120.15;76.28;;;;;;;-2.80;73.48;96777.59;1561898;91;25709;-73
2022/11/20 02:32:21;;;;;;;127.75;80.83;;;;;;;-2.79;73.49;96773.98;1513550;94;27410;-73
2022/11/20 02:34:48;;;;;;;124.47;76.42;;;;;;;-2.78;73.56;96761.61;1513452;94;25884;-73
2022/11/20 02:37:16;;;;;;;121.87;75.85;;;;;;;-2.76;73.62;96768.39;1513496;94;25870;-73
2022/11/20 02:39:44;;;;;;;125.58;74.77;;;;;;;-2.76;73.69;96764.91;1574679;88;26182;-73
2022/11/20 02:42:11;;;;;;;114.97;71.25;;;;;;;-2.77;73.70;96765.40;1587907;90;25814;-72
2022/11/20 02:44:38;;;;;;;115.60;71.92;;;;;;;-2.76;73.78;96769.70;1588023;90;27369;-73
2022/11/20 02:47:04;;;;;;;119.95;72.82;;;;;;;-2.73;73.78;96768.59;1588023;90;25889;-75
2022/11/20 02:49:31;;;;;;;116.47;72.95;;;;;;;-2.73;73.74;96760.18;1588112;90;25854;-73
2022/11/20 02:51:57;;;;;;;120.28;74.80;;;;;;;-2.73;73.71;96760.18;1588058;90;26569;-73
2022/11/20 02:54:25;;;;;;;138.05;87.25;;;;;;;-2.75;73.71;96758.17;1619269;87;25732;-73
2022/11/20 02:56:52;;;;;;;123.15;73.55;;;;;;;-2.76;73.69;96767.06;1638750;87;27411;-74
2022/11/20 02:59:19;;;;;;;113.70;69.90;;;;;;;-2.75;73.70;96759.48;1638654;87;25580;-74
2022/11/20 03:01:45;;;;;;;112.28;70.35;;;;;;;-2.77;73.61;96764.56;1638716;87;25780;-73
2022/11/20 03:04:12;;;;;;;121.85;71.57;;;;;;;-2.80;73.66;96755.14;1638728;87;25973;-72
2022/11/20 03:06:39;;;;;;;112.75;68.17;;;;;;;-2.82;73.68;96753.13;1638808;87;25296;-73
2022/11/20 03:09:05;;;;;;;122.20;74.30;;;;;;;-2.89;73.61;96748.06;1635677;87;27370;-76
2022/11/20 03:11:32;;;;;;;102.82;63.85;;;;;;;-2.92;73.65;96751.02;1634849;87;25585;-75
2022/11/20 03:14:05;;;;;;;93.35;59.77;;;;;;;-2.92;73.70;96747.05;1635156;87;25828;-73
2022/11/20 03:16:32;;;;;;;96.67;61.00;;;;;;;-2.97;73.61;96746.64;1576384;91;26633;-73
2022/11/20 03:19:00;;;;;;;92.40;57.78;;;;;;;-3.01;73.67;96756.65;1576426;91;25630;-73
2022/11/20 03:21:26;;;;;;;100.50;61.05;;;;;;;-3.04;73.70;96758.77;1586925;89;26820;-73
2022/11/20 03:23:54;;;;;;;98.10;62.48;;;;;;;-3.05;73.82;96754.45;1601529;89;25328;-74
2022/11/20 03:26:24;;;;;;;104.95;65.08;;;;;;;-3.04;73.86;96754.80;1601436;89;25897;-72
2022/11/20 03:28:55;;;;;;;95.12;59.10;;;;;;;-3.06;73.86;96748.83;1614125;87;26733;-73
2022/11/20 03:31:27;;;;;;;71.65;43.50;;;;;;;-3.05;73.96;96750.50;1621841;88;25759;-74
2022/11/20 03:33:54;;;;;;;94.93;60.37;;;;;;;-3.04;74.02;96748.20;1600187;89;27547;-73
2022/11/20 03:36:21;;;;;;;94.00;59.03;;;;;;;-3.04;74.02;96746.89;1573603;91;25737;-71
2022/11/20 03:38:49;;;;;;;92.37;59.45;;;;;;;-3.03;74.09;96744.59;1573683;91;25822;-73
2022/11/20 03:41:28;;;;;;;92.92;58.65;;;;;;;-2.99;74.11;96742.82;1573279;91;26227;-73
2022/11/20 03:43:59;;;;;;;93.15;56.45;;;;;;;-3.02;74.05;96743.09;1528410;93;25857;-75
2022/11/20 03:46:27;;;;;;;92.65;57.85;;;;;;;-3.04;74.06;96741.60;1528477;93;26900;-73
2022/11/20 03:48:54;;;;;;;94.07;58.68;;;;;;;-3.06;74.12;96739.59;1536716;93;25525;-73
2022/11/20 03:51:30;;;;;;;92.15;58.50;;;;;;;-3.04;74.25;96732.36;1536654;93;25873;-73
2022/11/20 03:54:00;;;;;;;92.55;58.05;;;;;;;-3.01;74.25;96736.02;1536795;93;26010;-75
2022/11/20 03:56:29;;;;;;;87.10;56.25;;;;;;;-2.98;74.34;96735.73;1536676;93;25805;-74
2022/11/20 03:58:57;;;;;;;99.05;60.80;;;;;;;-2.96;74.30;96732.47;1536726;93;28231;-73
2022/11/20 04:01:28;;;;;;;127.82;74.22;;;;;;;-2.99;74.29;96736.70;1536602;93;25842;-73
2022/11/20 04:03:56;;;;;;;97.25;55.12;;;;;;;-2.98;74.29;96733.09;1553376;92;25846;-74
2022/11/20 04:06:36;;;;;;;114.03;72.67;;;;;;;-2.97;74.38;96737.40;1556619;92;26864;-73
2022/11/20 04:09:04;;;;;;;124.70;79.55;;;;;;;-2.92;74.45;96740.45;1551250;92;25864;-72
2022/11/20 04:11:34;;;;;;;129.35;82.05;;;;;;;-2.87;74.43;96733.40;1548272;92;28389;-73
2022/11/20 04:14:04;;;;;;;135.90;84.07;;;;;;;-2.85;74.38;96735.41;1527218;92;25879;-72
2022/11/20 04:16:34;;;;;;;138.95;84.87;;;;;;;-2.82;74.36;96726.72;1575308;91;25807;-73
2022/11/20 04:19:05;;;;;;;131.75;82.57;;;;;;;-2.80;74.32;96734.50;1575223;91;26899;-73
2022/11/20 04:21:31;;;;;;;135.57;82.40;;;;;;;-2.78;74.26;96728.10;1605067;88;25891;-75
2022/11/20 04:23:58;;;;;;;130.52;82.60;;;;;;;-2.78;74.25;96729.91;1624314;88;27622;-73
2022/11/20 04:26:28;;;;;;;131.82;81.70;;;;;;;-2.81;74.31;96738.95;1624187;88;25673;-74
2022/11/20 04:28:55;;;;;;;129.93;81.65;;;;;;;-2.80;74.31;96737.14;1624329;88;25729;-73
2022/11/20 04:31:26;;;;;;;136.82;80.92;;;;;;;-2.80;74.33;96728.73;1631068;87;26107;-72
2022/11/20 04:33:53;;;;;;;133.87;82.08;;;;;;;-2.84;74.27;96736.59;1632207;87;25904;-73
2022/11/20 04:36:25;;;;;;;137.55;83.33;;;;;;;-2.85;74.34;96736.25;1660596;86;28177;-73
2022/11/20 04:38:58;;;;;;;128.55;81.25;;;;;;;-2.86;74.45;96734.58;1632105;87;25671;-74
2022/11/20 04:41:29;;;;;;;133.00;80.65;;;;;;;-2.86;74.51;96737.22;1583227;90;25769;-73
2022/11/20 04:44:02;;;;;;;197.37;119.25;;;;;;;-2.87;74.53;96736.88;1610225;89;26116;-75
2022/11/20 04:46:29;;;;;;;190.68;112.00;;;;;;;-2.85;74.66;96727.48;1610360;89;26648;-73
2022/11/20 04:48:56;;;;;;;170.20;103.55;;;;;;;-2.82;74.68;96730.69;1610211;89;26896;-73
2022/11/20 04:51:23;;;;;;;152.70;93.95;;;;;;;-2.79;74.67;96734.36;1610138;89;25905;-73
2022/11/20 04:53:50;;;;;;;144.95;90.60;;;;;;;-2.76;74.70;96734.53;1610361;89;25753;-73
2022/11/20 04:56:17;;;;;;;136.95;85.77;;;;;;;-2.72;74.66;96735.92;1610261;89;26785;-73
2022/11/20 04:58:44;;;;;;;141.97;88.00;;;;;;;-2.72;74.66;96738.07;1610300;89;25477;-75
2022/11/20 05:01:15;;;;;;;139.32;87.25;;;;;;;-2.70;74.64;96735.29;1619810;88;26916;-73
2022/11/20 05:03:43;;;;;;;131.85;82.95;;;;;;;-2.69;74.60;96733.83;1624594;88;25805;-73
2022/11/20 05:06:13;;;;;;;125.35;81.20;;;;;;;-2.70;74.58;96736.13;1608686;89;25743;-73
2022/11/20 05:08:40;;;;;;;129.90;79.35;;;;;;;-2.69;74.56;96731.67;1587012;89;26635;-72
2022/11/20 05:11:10;;;;;;;126.50;78.92;;;;;;;-2.68;74.58;96728.06;1607765;89;25789;-74
2022/11/20 05:13:38;;;;;;;123.25;77.12;;;;;;;-2.66;74.58;96729.58;1607419;89;45695;-72
2022/11/20 05:16:12;;;;;;;138.32;82.72;;;;;;;-2.64;74.59;96727.59;1607511;89;26475;-73
2022/11/20 05:18:39;;;;;;;138.22;81.30;;;;;;;-2.65;74.63;96718.01;1677226;85;25765;-73
2022/11/20 05:21:08;;;;;;;137.05;81.90;;;;;;;-2.65;74.71;96710.56;1679856;85;26002;-73
2022/11/20 05:23:35;;;;;;;131.52;79.00;;;;;;;-2.63;74.67;96708.13;1662927;86;25724;-73
2022/11/20 05:26:02;;;;;;;124.15;75.97;;;;;;;-2.62;74.71;96703.19;1679855;85;27368;-72
2022/11/20 05:28:31;;;;;;;121.70;76.37;;;;;;;-2.61;74.70;96696.93;1650834;86;25818;-75
2022/11/20 05:31:12;;;;;;;122.47;75.28;;;;;;;-2.59;74.71;96691.02;1679866;85;25879;-72
2022/11/20 05:33:42;;;;;;;114.17;72.67;;;;;;;-2.59;74.74;96694.98;1662826;86;26008;-72
2022/11/20 05:36:10;;;;;;;120.90;74.17;;;;;;;-2.60;74.75;96698.59;1679932;85;25841;-76
2022/11/20 05:38:37;;;;;;;117.82;73.85;;;;;;;-2.62;74.75;96695.27;1680214;84;27624;-73
2022/11/20 05:41:08;;;;;;;113.47;69.10;;;;;;;-2.63;74.78;96688.31;1707006;84;25473;-72
2022/11/20 05:43:35;;;;;;;109.92;68.37;;;;;;;-2.60;74.80;96696.44;1651386;86;26351;-73
2022/11/20 05:46:04;;;;;;;114.15;70.52;;;;;;;-2.59;74.81;96694.98;1685297;85;26129;-76
2022/11/20 05:48:31;;;;;;;115.30;71.12;;;;;;;-2.55;74.88;96697.67;1685344;85;25282;-72
2022/11/20 05:51:00;;;;;;;121.95;72.67;;;;;;;-2.51;74.89;96706.61;1685253;85;27531;-75
2022/11/20 05:53:27;;;;;;;118.17;72.55;;;;;;;-2.50;74.89;96698.53;1685198;85;25281;-72
2022/11/20 05:56:10;;;;;;;116.70;73.45;;;;;;;-2.54;74.84;96704.59;1685233;85;25758;-73
2022/11/20 05:58:38;;;;;;;117.40;73.75;;;;;;;-2.50;74.90;96702.98;1559389;91;26220;-73
2022/11/20 06:01:21;;;;;;;122.42;76.15;;;;;;;-2.48;74.83;96706.32;1559624;92;25779;-72
2022/11/20 06:03:50;;;;;;;127.60;78.52;;;;;;;-2.54;74.79;96696.67;1559541;90;28375;-76
2022/11/20 06:06:18;;;;;;;131.30;82.97;;;;;;;-2.63;74.83;96696.23;1559261;90;25575;-73
2022/11/20 06:08:46;;;;;;;142.10;85.47;;;;;;;-2.68;74.92;96682.66;1558883;91;25857;-73
2022/11/20 06:11:15;;;;;;;129.97;81.60;;;;;;;-2.65;75.00;96678.86;1530553;93;26183;-73
2022/11/20 06:13:43;;;;;;;126.18;82.72;;;;;;;-2.65;74.98;96671.77;1539619;92;25882;-73
2022/11/20 06:16:11;;;;;;;136.68;84.13;;;;;;;-2.65;75.01;96673.58;1539411;92;27546;-73
2022/11/20 06:18:38;;;;;;;140.07;85.03;;;;;;;-2.66;75.02;96670.13;1539425;93;25783;-73
2022/11/20 06:21:12;;;;;;;127.92;79.95;;;;;;;-2.64;75.00;96665.52;1557794;92;25714;-75
2022/11/20 06:23:39;;;;;;;130.57;83.12;;;;;;;-2.65;75.01;96667.81;1530827;93;26707;-72
2022/11/20 06:26:10;;;;;;;129.07;83.65;;;;;;;-2.67;75.02;96671.11;1539383;93;25605;-73
2022/11/20 06:28:40;;;;;;;129.18;80.60;;;;;;;-2.69;75.08;96673.06;1509703;94;28406;-74
2022/11/20 06:31:09;;;;;;;126.85;80.80;;;;;;;-2.65;75.13;96671.77;1509627;94;25565;-73
2022/11/20 06:33:36;;;;;;;131.25;77.90;;;;;;;-2.62;75.16;96674.12;1511461;94;25814;-72
2022/11/20 06:36:04;;;;;;;124.42;78.17;;;;;;;-2.61;75.21;96669.19;1511162;94;26006;-73
2022/11/20 06:38:31;;;;;;;118.28;74.15;;;;;;;-2.60;75.20;96662.92;1511380;93;25559;-73
2022/11/20 06:40:57;;;;;;;118.00;75.12;;;;;;;-2.60;75.20;96668.70;1499852;94;27419;-75
2022/11/20 06:43:25;;;;;;;121.60;76.02;;;;;;;-2.60;75.19;96670.02;1495155;95;25529;-72
2022/11/20 06:45:53;;;;;;;124.95;77.37;;;;;;;-2.59;75.22;96664.59;1495060;95;26274;-75
2022/11/20 06:48:21;;;;;;;117.40;74.15;;;;;;;-2.57;75.20;96666.59;1495286;95;26011;-73
2022/11/20 06:50:47;;;;;;;117.13;76.60;;;;;;;-2.56;75.22;96666.11;1495267;95;25899;-73
2022/11/20 06:53:14;;;;;;;122.53;79.53;;;;;;;-2.55;75.23;96666.45;1497559;91;27355;-72
2022/11/20 06:55:46;;;;;;;134.93;86.02;;;;;;;-2.54;75.26;96667.59;1592217;90;25699;-72
2022/11/20 06:58:14;;;;;;;141.00;89.65;;;;;;;-2.50;75.46;96660.22;1592915;90;25869;-72
2022/11/20 07:00:41;;;;;;;129.72;85.40;;;;;;;-2.47;75.38;96663.06;1592826;90;26195;-74
2022/11/20 07:03:10;;;;;;;126.38;81.92;;;;;;;-2.49;75.46;96660.56;1656845;86;25874;-72
2022/11/20 07:05:38;;;;;;;145.40;93.37;;;;;;;-2.52;75.48;96656.89;1656761;86;27388;-75
2022/11/20 07:08:05;;;;;;;142.03;88.37;;;;;;;-2.55;75.52;96669.93;1656680;86;25741;-72
2022/11/20 07:10:32;;;;;;;139.20;89.22;;;;;;;-2.55;75.63;96675.22;1654079;86;25765;-73
2022/11/20 07:12:59;;;;;;;136.05;84.55;;;;;;;-2.52;75.65;96665.30;1654145;86;26005;-73
2022/11/20 07:15:26;;;;;;;134.63;83.75;;;;;;;-2.48;75.73;96673.28;1654150;86;26044;-73
2022/11/20 07:17:52;;;;;;;129.10;82.37;;;;;;;-2.41;75.78;96675.66;1654150;86;27361;-75
2022/11/20 07:20:19;;;;;;;143.10;85.42;;;;;;;-2.39;75.73;96669.74;1654147;86;25740;-72
2022/11/20 07:22:45;;;;;;;130.45;82.55;;;;;;;-2.39;75.74;96668.42;1654160;86;26182;-75
2022/11/20 07:25:12;;;;;;;124.92;80.25;;;;;;;-2.39;75.79;96678.99;1682226;83;26583;-76
2022/11/20 07:27:39;;;;;;;119.05;76.62;;;;;;;-2.36;75.82;96685.31;1707405;84;25645;-76
2022/11/20 07:30:07;;;;;;;122.40;79.25;;;;;;;-2.36;75.75;96686.63;1707388;84;27358;-72
2022/11/20 07:32:33;;;;;;;121.17;76.37;;;;;;;-2.33;75.76;96685.86;1707230;84;25435;-72
2022/11/20 07:35:00;;;;;;;119.22;78.47;;;;;;;-2.28;75.72;96684.06;1707643;84;25710;-75
2022/11/20 07:37:26;;;;;;;124.47;78.92;;;;;;;-2.23;75.71;96688.42;1707217;84;25980;-72
2022/11/20 07:39:53;;;;;;;127.82;77.92;;;;;;;-2.19;75.71;96695.09;1707374;84;25659;-73
2022/11/20 07:42:20;;;;;;;119.87;77.65;;;;;;;-2.15;75.73;96692.95;1707086;84;27422;-73
2022/11/20 07:44:46;;;;;;;110.48;69.22;;;;;;;-2.11;75.80;96685.91;1707276;84;25975;-73
2022/11/20 07:47:13;;;;;;;107.92;67.32;;;;;;;-2.05;75.71;96686.61;1707205;84;25219;-73
2022/11/20 07:49:39;;;;;;;112.42;70.17;;;;;;;-2.02;75.62;96687.64;1707368;84;26052;-73
2022/11/20 07:52:06;;;;;;;109.75;71.12;;;;;;;-1.98;75.63;96681.08;1707469;84;25639;-74
2022/11/20 07:54:33;;;;;;;103.45;65.57;;;;;;;-1.93;75.62;96684.08;1707359;84;27352;-73
2022/11/20 07:56:59;;;;;;;115.17;73.95;;;;;;;-1.86;75.62;96677.70;1707409;84;25680;-75
2022/11/20 07:59:26;;;;;;;116.47;74.35;;;;;;;-1.82;75.60;96674.62;1707327;84;25681;-73
2022/11/20 08:01:52;;;;;;;119.72;79.97;;;;;;;-1.76;75.68;96676.30;1721656;82;26010;-73
2022/11/20 08:04:19;;;;;;;124.55;79.65;;;;;;;-1.71;75.66;96675.36;1749655;81;25804;-75
2022/11/20 08:06:46;;;;;;;114.47;75.72;;;;;;;-1.66;75.64;96681.00;1750267;81;27381;-72
2022/11/20 08:09:12;;;;;;;117.70;76.77;;;;;;;-1.59;75.72;96675.45;1736694;81;25738;-73
2022/11/20 08:14:24;;;;;;;125.38;81.82;;;;;;;-1.47;75.66;96674.22;1749197;81;26118;-73
2022/11/20 08:16:51;;;;;;;146.02;93.55;;;;;;;-1.52;75.57;96679.13;1752199;81;25783;-75
2022/11/20 08:19:19;;;;;;;160.50;102.67;;;;;;;-1.55;75.69;96685.56;1752901;81;27473;-73
2022/11/20 08:21:45;;;;;;;159.67;104.07;;;;;;;-1.56;75.81;96680.41;1752929;81;25697;-73
2022/11/20 08:24:12;;;;;;;153.53;101.25;;;;;;;-1.58;75.83;96682.41;1752711;81;25682;-73
2022/11/20 08:26:40;;;;;;;141.53;92.35;;;;;;;-1.55;75.79;96682.91;1752865;81;25990;-74
2022/11/20 08:29:07;;;;;;;143.85;91.12;;;;;;;-1.50;75.83;96681.14;1752955;81;25769;-72
2022/11/20 08:31:34;;;;;;;129.15;84.42;;;;;;;-1.42;75.88;96669.28;1752922;81;27374;-73
2022/11/20 08:34:03;;;;;;;121.95;74.82;;;;;;;-1.41;75.76;96665.65;1752735;81;25677;-74
2022/11/20 08:36:32;;;;;;;112.95;71.45;;;;;;;-1.38;75.77;96659.22;1753076;81;26303;-73
2022/11/20 08:38:59;;;;;;;106.63;64.35;;;;;;;-1.33;75.84;96663.08;1752983;81;26054;-75
2022/11/20 08:44:09;;;;;;;;;;;;;;;;;;;;;
2022/11/20 08:46:35;;;;;;;122.55;72.95;;;;;;;-1.17;75.77;96660.50;1661834;86;25987;-72
2022/11/20 08:49:02;;;;;;;112.62;70.25;;;;;;;-1.09;75.78;96654.44;1648741;86;25871;-73
2022/11/20 08:51:29;;;;;;;100.20;61.05;;;;;;;-0.99;75.77;96655.16;1651042;86;25997;-74
2022/11/20 08:53:55;;;;;;;109.03;66.90;;;;;;;-0.87;75.72;96651.73;1651126;86;25811;-73
2022/11/20 08:56:22;;;;;;;104.27;65.08;;;;;;;-0.78;75.56;96650.27;1651008;86;27387;-75
2022/11/20 08:58:52;;;;;;;132.15;77.67;;;;;;;-0.71;75.44;96645.16;1651069;86;25758;-73
2022/11/20 09:01:20;;;;;;;134.32;80.38;;;;;;;-0.67;75.38;96647.83;1651090;86;26432;-72
2022/11/20 09:03:47;;;;;;;151.05;91.67;;;;;;;-0.61;75.27;96647.70;1651233;86;25988;-75
2022/11/20 09:06:14;;;;;;;162.03;93.58;;;;;;;-0.56;75.25;96651.52;1651166;86;25788;-73
2022/11/20 09:08:41;;;;;;;161.32;95.20;;;;;;;-0.54;75.14;96645.56;1651230;86;27436;-73
2022/11/20 09:11:08;;;;;;;154.18;91.78;;;;;;;-0.52;75.23;96651.53;1649033;86;25305;-72
2022/11/20 09:13:36;;;;;;;132.95;81.47;;;;;;;-0.48;75.20;96648.88;1649313;86;25783;-73
2022/11/20 09:16:07;;;;;;;125.58;77.62;;;;;;;-0.46;75.10;96652.20;1649267;86;26151;-73
2022/11/20 09:18:38;;;;;;;123.90;76.33;;;;;;;-0.44;75.07;96642.77;1633899;87;25935;-73
2022/11/20 09:21:11;;;;;;;120.35;73.60;;;;;;;-0.42;74.94;96643.44;1634022;87;27399;-74
2022/11/20 09:23:39;;;;;;;122.55;72.35;;;;;;;-0.38;74.99;96636.33;1617161;87;25566;-72
2022/11/20 09:26:09;;;;;;;105.10;63.45;;;;;;;-0.37;74.84;96627.39;1562094;89;26089;-73
2022/11/20 09:28:36;;;;;;;112.88;65.95;;;;;;;-0.32;74.96;96621.58;1583175;87;26008;-73
2022/11/20 09:31:09;;;;;;;108.15;63.58;;;;;;;-0.28;74.97;96622.92;1638974;86;26314;-73
2022/11/20 09:33:36;;;;;;;111.57;64.25;;;;;;;-0.20;74.96;96622.92;1610300;89;27335;-75
2022/11/20 09:36:03;;;;;;;102.95;58.02;;;;;;;-0.13;74.87;96623.12;1610235;89;25862;-73
2022/11/20 09:38:30;;;;;;;94.47;58.15;;;;;;;-0.05;74.73;96623.12;1610324;89;25750;-73
2022/11/20 09:41:03;;;;;;;93.70;54.83;;;;;;;-0.01;74.61;96626.62;1626256;87;25995;-73
2022/11/20 09:43:56;;;;;;;89.55;52.38;;;;;;;0.04;74.58;96630.08;1637870;87;25853;-72
2022/11/20 09:46:43;;;;;;;96.37;54.58;;;;;;;0.09;74.37;96627.78;1640743;86;27406;-73
2022/11/20 09:49:26;;;;;;;102.65;57.55;;;;;;;0.12;74.17;96623.44;1619432;87;25835;-72
2022/11/20 09:52:06;;;;;;;87.27;53.00;;;;;;;0.09;74.21;96630.43;1631984;87;25832;-74
2022/11/20 09:54:39;;;;;;;81.35;47.33;;;;;;;0.12;74.21;96634.05;1639681;86;25960;-72
2022/11/20 09:57:15;;;;;;;80.05;47.25;;;;;;;0.20;74.16;96633.25;1636921;87;25835;-73
2022/11/20 09:59:52;;;;;;;79.25;47.48;;;;;;;0.25;73.97;96631.73;1637185;87;27448;-73
2022/11/20 10:02:37;;;;;;;88.00;51.00;;;;;;;0.26;73.91;96640.04;1542765;92;25832;-73
2022/11/20 10:05:28;;;;;;;106.85;60.05;;;;;;;0.28;73.92;96639.87;1523291;92;25901;-73
2022/11/20 10:08:24;;;;;;;102.05;54.98;;;;;;;0.33;73.88;96641.05;1542792;92;25972;-75
2022/11/20 10:11:14;;;;;;;92.00;53.55;;;;;;;0.38;74.01;96642.36;1499893;94;25854;-72
2022/11/20 10:14:06;;;;;;;94.62;57.05;;;;;;;0.45;73.99;96641.55;1503181;95;28408;-73
2022/11/20 10:17:05;;;;;;;92.45;54.60;;;;;;;0.49;73.99;96638.03;1434000;100;25401;-72
2022/11/20 10:20:08;;;;;;;91.05;54.27;;;;;;;0.47;73.92;96648.02;1456055;98;25876;-73
2022/11/20 10:22:49;;;;;;;91.85;53.92;;;;;;;0.51;73.92;96644.01;1451283;98;26064;-73
2022/11/20 10:25:24;;;;;;;76.33;47.15;;;;;;;0.59;73.85;96640.04;1449412;98;25396;-73
2022/11/20 10:28:05;;;;;;;72.97;44.93;;;;;;;0.62;73.53;96634.37;1449640;98;27501;-73
2022/11/20 10:30:38;;;;;;;76.15;45.67;;;;;;;0.62;73.52;96630.38;1406724;100;25880;-75
2022/11/20 10:33:15;;;;;;;79.55;46.88;;;;;;;0.65;73.48;96632.21;1388199;103;25773;-72
2022/11/20 10:35:48;;;;;;;74.80;44.90;;;;;;;0.73;73.43;96639.33;1388147;103;26023;-73
2022/11/20 10:38:19;;;;;;;70.78;42.70;;;;;;;0.79;73.40;96629.87;1366738;104;25868;-75
2022/11/20 10:41:24;;;;;;;70.75;42.35;;;;;;;0.84;73.26;96627.05;1374551;102;27495;-73
2022/11/20 10:43:34;;;;;;;75.08;44.42;;;;;;;0.86;73.12;96627.68;1381759;102;25831;-72
2022/11/20 10:46:12;;;;;;;73.97;44.42;;;;;;;0.92;73.18;96628.84;1390266;101;25440;-73
2022/11/20 10:48:41;;;;;;;71.55;42.80;;;;;;;0.97;73.08;96633.95;1417871;99;26142;-74
2022/11/20 10:51:36;;;;;;;75.35;42.73;;;;;;;1.02;72.99;96629.47;1427791;99;25890;-73
2022/11/20 10:54:33;;;;;;;68.87;40.43;;;;;;;1.07;72.85;96626.64;1441963;99;27449;-72
2022/11/20 10:57:27;;;;;;;106.75;55.38;;;;;;;1.11;72.79;96623.13;1402933;100;25889;-75
2022/11/20 11:00:01;;;;;;;81.60;46.53;;;;;;;1.16;72.75;96619.96;1428461;99;25612;-73
2022/11/20 11:02:45;;;;;;;85.32;46.42;;;;;;;1.19;72.57;96616.97;1457496;94;26871;-73
2022/11/20 11:05:37;;;;;;;77.78;44.27;;;;;;;1.22;72.44;96618.76;1488149;95;25894;-74
2022/11/20 11:08:11;;;;;;;80.77;48.20;;;;;;;1.26;72.38;96616.09;1490915;96;28070;-72
2022/11/20 11:10:43;;;;;;;78.95;43.98;;;;;;;1.30;72.40;96616.59;1487877;96;25830;-75
2022/11/20 11:13:24;;;;;;;68.83;40.30;;;;;;;1.32;72.39;96610.60;1485253;96;28809;-72
2022/11/20 11:15:51;;;;;;;68.78;39.63;;;;;;;1.33;72.42;96612.23;1484644;96;26016;-72
2022/11/20 11:18:30;;;;;;;68.25;39.78;;;;;;;1.23;72.21;96600.98;1485093;96;26549;-74
2022/11/20 11:21:00;;;;;;;66.45;38.50;;;;;;;1.15;72.12;96593.05;1485151;96;27435;-72
2022/11/20 11:23:42;;;;;;;68.12;40.60;;;;;;;1.12;72.19;96590.73;1485150;96;25967;-72
2022/11/20 11:26:22;;;;;;;71.05;40.03;;;;;;;1.15;72.42;96585.08;1485360;96;25871;-74
2022/11/20 11:28:59;;;;;;;66.33;39.30;;;;;;;1.20;72.54;96584.90;1508998;95;25834;-73
2022/11/20 11:31:32;;;;;;;72.15;42.53;;;;;;;1.25;72.43;96575.88;1528797;92;25966;-73
2022/11/20 11:34:14;;;;;;;66.05;40.40;;;;;;;1.31;72.35;96578.37;1529809;93;27436;-72
2022/11/20 11:36:41;;;;;;;;;;;;;;;1.38;72.31;96561.53;1566240;91;25867;-75
2022/11/20 11:39:15;;;;;;;98.45;50.55;;;;;;;1.42;72.21;96556.20;1562715;91;25851;-73